• Join FlightAware (Why Join?)
  • Login
  • US Flag 
08:54AM EDT


 

Airport Tracker/Info


-or-


 

Live Flight TrackerFlight Track Log ✈ N8445S ✈ 08-Jan-2014 ✈ KPHF - KGAI

Flight Track Log - Related Links

Times and Time Zones

All times are in EST time to prevent confusion due to time zone crossing. See the N8445S flight status page for this flight to view local times or setup timezone preferences in your user account.

Time Position Orientation Groundspeed Altitude Reporting Facility
EST Latitude Longitude Course Direction KTS MPH feet Rate Location/Type
07:30PM 37.1247 -76.5008 247° West 99 114 500  Level Washington Center
07:31PM 37.1142 -76.5322 247° West 74 85 1,500 720 Climbing Washington Center
07:32PM 37.1078 -76.5556 251° West 75 86 2,200 660 Climbing Washington Center
07:34PM 37.1500 -76.5833 332° Northwest 76 87 3,500 600 Climbing Potomac TRACON
07:35PM 37.1667 -76.5833 360° North 71 82 4,000 540 Climbing Potomac TRACON
07:36PM 37.1833 -76.5833 360° North 69 79 4,600 300 Climbing Potomac TRACON
07:38PM 37.2167 -76.6000 338° Northwest 90 104 5,000 120 Climbing Potomac TRACON
07:39PM 37.2333 -76.6000 360° North 80 92 5,000  Level Potomac TRACON
07:40PM 37.2500 -76.6167 321° Northwest 85 98 5,000  Level Potomac TRACON
07:41PM 37.2667 -76.6333 321° Northwest 79 91 5,000  Level Potomac TRACON
07:42PM 37.3000 -76.6333 360° North 79 91 5,000  Level Potomac TRACON
07:43PM 37.3167 -76.6500 322° Northwest 76 87 5,100  Climbing Potomac TRACON
07:44PM 37.3333 -76.6667 322° Northwest 81 93 5,100  Level Potomac TRACON
07:45PM 37.3500 -76.6667 360° North 80 92 5,100  Level Potomac TRACON
07:46PM 37.3667 -76.6833 322° Northwest 79 91 5,100  Level Potomac TRACON
07:47PM 37.4000 -76.6833 360° North 83 96 5,100  Level Potomac TRACON
07:48PM 37.4167 -76.7000 322° Northwest 78 90 5,100  Level Potomac TRACON
07:49PM 37.4333 -76.7000 360° North 73 84 5,100 -60 Level Potomac TRACON
07:50PM 37.4500 -76.7167 322° Northwest 92 106 5,000 -60 Descending Potomac TRACON
07:51PM 37.4833 -76.7000 22° Northeast 87 100 5,000  Level Potomac TRACON
07:52PM 37.5000 -76.7000 360° North 92 106 5,000  Level Potomac TRACON
07:53PM 37.5333 -76.7000 360° North 94 108 5,000  Level Potomac TRACON
07:54PM 37.5500 -76.7000 360° North 91 105 5,000  Level Potomac TRACON
07:55PM 37.5833 -76.7000 360° North 92 106 5,000  Level Potomac TRACON
07:56PM 37.6000 -76.7000 360° North 98 113 5,100  Climbing Potomac TRACON
07:57PM 37.6333 -76.7000 360° North 91 105 5,100  Level Potomac TRACON
07:58PM 37.6500 -76.7000 360° North 93 107 5,100 -60 Level Potomac TRACON
07:59PM 37.6833 -76.7000 360° North 95 109 5,000 -60 Descending Potomac TRACON
08:00PM 37.7167 -76.6833 22° Northeast 100 115 5,000  Level Potomac TRACON
08:01PM 37.7333 -76.6833 360° North 91 105 5,000  Level Potomac TRACON
08:02PM 37.7500 -76.6833 360° North 93 107 5,100 60 Climbing Potomac TRACON
08:03PM 37.7761 -76.6872 353° North 91 105 5,100 -120 Level Washington Center
08:03PM 37.7950 -76.6875 359° North 93 107 5,000  Descending Washington Center
08:05PM 37.8200 -76.6828 North 89 102 5,100  Climbing Washington Center
08:06PM 37.8431 -76.6831 359° North 86 99 5,000 -60 Descending Washington Center
08:07PM 37.8658 -76.6833 359° North 85 98 5,000  Level Washington Center
08:07PM 37.8889 -76.6811 North 87 100 5,000  Level Washington Center
08:08PM 37.9139 -76.6761 North 94 108 5,100  Climbing Washington Center
08:09PM 37.9411 -76.6661 16° North 97 112 5,000 -60 Descending Washington Center
08:10PM 37.9661 -76.6533 22° Northeast 98 113 5,000  Level Washington Center
08:11PM 37.9914 -76.6353 29° Northeast 104 120 5,000  Level Washington Center
08:12PM 38.0167 -76.6197 26° Northeast 102 117 5,000  Level Washington Center
08:13PM 38.0417 -76.6069 22° Northeast 100 115 5,000  Level Washington Center
08:15PM 38.0689 -76.5914 24° Northeast 97 112 5,100  Climbing Washington Center
08:16PM 38.0961 -76.5839 12° North 98 113 5,100  Level Washington Center
08:16PM 38.1211 -76.5736 18° North 101 116 5,100  Level Washington Center
08:17PM 38.1444 -76.5528 35° Northeast 107 123 5,100 -60 Level Washington Center
08:18PM 38.1694 -76.5400 22° Northeast 102 117 5,000  Descending Washington Center
08:19PM 38.1989 -76.5217 26° Northeast 103 119 5,100  Climbing Washington Center
08:20PM 38.2239 -76.5061 26° Northeast 106 122 5,100  Level Washington Center
08:21PM 38.2492 -76.4933 22° Northeast 104 120 5,100  Level Washington Center
08:23PM 38.2783 -76.4831 15° North 101 116 5,100  Level Washington Center
08:24PM 38.3056 -76.4703 20° North 104 120 5,100  Level Washington Center
08:25PM 38.3347 -76.4572 19° North 108 124 5,100 -60 Level Washington Center
08:26PM 38.3619 -76.4417 24° Northeast 110 127 5,000  Descending Washington Center
08:27PM 38.3892 -76.4289 20° North 103 119 5,100  Climbing Washington Center
08:28PM 38.4164 -76.4158 21° North 105 121 5,100  Level Washington Center
08:29PM 38.4417 -76.4003 26° Northeast 106 122 5,100 -60 Level Washington Center
08:30PM 38.5000 -76.3667 24° Northeast 105 121 5,000 -60 Descending Potomac TRACON
08:31PM 38.5167 -76.3667 360° North 104 120 5,000  Level Potomac TRACON
08:32PM 38.5500 -76.3500 21° North 107 123 5,000  Level Potomac TRACON
08:33PM 38.5833 -76.3333 21° North 109 125 5,000  Level Potomac TRACON
08:34PM 38.6000 -76.3167 38° Northeast 105 121 5,000  Level Potomac TRACON
08:35PM 38.6333 -76.3167 360° North 100 115 5,000  Level Potomac TRACON
08:36PM 38.6500 -76.3000 38° Northeast 105 121 5,000  Level Potomac TRACON
08:37PM 38.6833 -76.3000 360° North 99 114 5,000  Level Potomac TRACON
08:38PM 38.7167 -76.2833 21° North 95 109 5,000  Level Potomac TRACON
08:39PM 38.7333 -76.2833 360° North 100 115 5,000  Level Potomac TRACON
08:40PM 38.7667 -76.2667 21° North 99 114 5,000  Level Potomac TRACON
08:41PM 38.7833 -76.2667 360° North 99 114 5,000  Level Potomac TRACON
08:43PM 38.8167 -76.2500 21° North 106 122 5,000  Level Potomac TRACON
08:44PM 38.8500 -76.2500 360° North 98 113 5,000 180 Level Potomac TRACON
08:45PM 38.8667 -76.2500 360° North 91 105 5,400 420 Climbing Potomac TRACON
08:45PM 38.8833 -76.2500 360° North 65 75 5,800 240 Climbing Potomac TRACON
08:46PM 38.9000 -76.2667 322° Northwest 79 91 5,900 60 Climbing Potomac TRACON
08:47PM 38.9167 -76.2833 322° Northwest 77 89 6,000  Climbing Potomac TRACON
08:48PM 38.9333 -76.3000 322° Northwest 77 89 6,000  Level Potomac TRACON
08:49PM 38.9500 -76.3167 322° Northwest 78 90 6,000 -60 Level Potomac TRACON
08:50PM 38.9667 -76.3333 322° Northwest 79 91 5,900  Descending Potomac TRACON
08:51PM 38.9833 -76.3500 322° Northwest 76 87 6,000  Climbing Potomac TRACON
08:52PM 38.9833 -76.3833 270° West 71 82 6,000  Level Potomac TRACON
08:53PM 39.0000 -76.4000 322° Northwest 70 81 6,000  Level Potomac TRACON
08:54PM 39.0000 -76.4167 270° West 70 81 6,000 -60 Level Potomac TRACON
08:55PM 39.0167 -76.4500 303° West 68 78 5,900 -60 Descending Potomac TRACON
08:56PM 39.0167 -76.4667 270° West 67 77 5,900  Level Potomac TRACON
08:57PM 39.0167 -76.4833 270° West 65 75 5,900  Level Potomac TRACON
08:58PM 39.0333 -76.5167 303° West 68 78 5,900  Level Potomac TRACON
08:59PM 39.0333 -76.5333 270° West 70 81 6,000  Climbing Potomac TRACON
09:00PM 39.0333 -76.5500 270° West 67 77 6,000  Level Potomac TRACON
09:01PM 39.0500 -76.5833 303° West 69 79 6,000  Level Potomac TRACON
09:02PM 39.0500 -76.6000 270° West 68 78 6,000  Level Potomac TRACON
09:03PM 39.0500 -76.6333 270° West 70 81 6,100  Climbing Potomac TRACON
09:04PM 39.0500 -76.6500 270° West 68 78 6,000  Descending Potomac TRACON
09:05PM 39.0667 -76.6833 303° West 67 77 6,100  Climbing Potomac TRACON
09:06PM 39.0667 -76.7000 270° West 69 79 6,100 -120 Level Potomac TRACON
09:07PM 39.0667 -76.7167 270° West 78 90 5,900 -300 Descending Potomac TRACON
09:08PM 39.0833 -76.7500 303° West 79 91 5,600 -300 Descending Potomac TRACON
09:09PM 39.0833 -76.7833 270° West 86 99 5,300 -300 Descending Potomac TRACON
09:10PM 39.0833 -76.8000 270° West 87 100 5,000 -300 Descending Potomac TRACON
09:11PM 39.1000 -76.8333 303° West 91 105 4,700 -300 Descending Potomac TRACON
09:12PM 39.1000 -76.8667 270° West 91 105 4,500 -360 Descending Potomac TRACON
09:13PM 39.1167 -76.9000 303° West 92 106 4,000 -540 Descending Potomac TRACON
09:14PM 39.1167 -76.9333 270° West 90 104 3,500 -480 Descending Potomac TRACON
09:15PM 39.1333 -76.9667 303° West 89 102 3,100 -420 Descending Potomac TRACON
09:16PM 39.1333 -77.0000 270° West 95 109 2,700 -480 Descending Potomac TRACON
09:17PM 39.1333 -77.0333 270° West 97 112 2,200 -420 Descending Potomac TRACON
09:18PM 39.1500 -77.0667 303° West 102 117 1,900 -300 Descending Potomac TRACON
09:19PM 39.1500 -77.1000 270° West 113 130 1,600 -300 Descending Potomac TRACON
09:20PM 39.1667 -77.1333 303° West 113 130 1,400 -240 Descending Potomac TRACON
09:21PM 39.1833 -77.1667 303° West 112 129 1,200 -240 Descending Potomac TRACON
09:23PM 39.1683 -77.1660 142° Southeast  Level Estimated
09:30PM 39.1683 -77.1660 288° West  Level Estimated
09:31PM 39.1683 -77.1660 288° West  Level Estimated
09:32PM 39.1683 -77.1660 288° West  Level Estimated
09:33PM 39.1683 -77.1660 288° West  Level Estimated